Time,TemperatureF,DewpointF,PressureIn,WindDirection,WindDirectionDegrees,WindSpeedMPH,WindSpeedGustMPH,Humidity,HourlyPrecipIn,Conditions,Clouds,dailyrainin,SoftwareType,DateUTC
2013-01-02 00:03:00,13.0,2.0,30.11,SW,232,10.0,12.0,62,0.00,,,0.00,,2013-01-02 05:03:00,
2013-01-02 00:12:00,13.0,2.0,30.11,SW,232,10.0,12.0,62,0.00,,,0.00,,2013-01-02 05:12:00,
2013-01-02 00:22:00,12.0,2.0,30.12,SW,232,5.0,11.0,62,0.00,,,0.00,,2013-01-02 05:22:00,
2013-01-02 00:33:00,12.0,2.0,30.12,WSW,244,8.0,12.0,63,0.00,,,0.00,,2013-01-02 05:33:00,
2013-01-02 00:42:00,12.0,2.0,30.12,WSW,244,8.0,12.0,63,0.00,,,0.00,,2013-01-02 05:42:00,
2013-01-02 00:53:00,12.0,2.0,30.12,SW,226,9.0,13.0,63,0.00,,,0.00,,2013-01-02 05:53:00,
2013-01-02 01:02:00,12.0,2.0,30.12,West,270,14.0,20.0,63,0.00,,,0.00,,2013-01-02 06:02:00,
2013-01-02 01:12:00,12.0,2.0,30.12,West,270,14.0,20.0,63,0.00,,,0.00,,2013-01-02 06:12:00,
2013-01-02 01:22:00,12.0,2.0,30.12,WSW,251,13.0,28.0,62,0.00,,,0.00,,2013-01-02 06:22:00,
2013-01-02 01:32:00,12.0,2.0,30.13,West,275,4.0,21.0,62,0.00,,,0.00,,2013-01-02 06:32:00,
2013-01-02 01:42:00,12.0,2.0,30.13,West,275,4.0,21.0,62,0.00,,,0.00,,2013-01-02 06:42:00,
2013-01-02 01:53:00,12.0,2.0,30.14,West,261,7.0,16.0,63,0.00,,,0.00,,2013-01-02 06:53:00,
2013-01-02 02:02:00,11.0,2.0,30.14,SW,225,6.0,14.0,65,0.00,,,0.00,,2013-01-02 07:02:00,
2013-01-02 02:12:00,11.0,2.0,30.14,SW,225,6.0,14.0,65,0.00,,,0.00,,2013-01-02 07:12:00,
2013-01-02 02:22:00,10.0,2.0,30.13,South,182,3.0,11.0,68,0.00,,,0.00,,2013-01-02 07:22:00,
2013-01-02 02:32:00,10.0,1.0,30.14,WSW,253,1.0,13.0,67,0.00,,,0.00,,2013-01-02 07:32:00,
2013-01-02 02:42:00,10.0,1.0,30.14,WSW,253,1.0,13.0,67,0.00,,,0.00,,2013-01-02 07:42:00,
2013-01-02 02:52:00,10.0,1.0,30.14,ESE,107,0.0,5.0,66,0.00,,,0.00,,2013-01-02 07:52:00,
2013-01-02 03:02:00,9.0,0.0,30.11,NW,306,2.0,5.0,67,0.00,,,0.00,,2013-01-02 08:02:00,
2013-01-02 03:11:00,9.0,0.0,30.11,NW,306,2.0,5.0,67,0.00,,,0.00,,2013-01-02 08:11:00,
2013-01-02 03:22:00,9.0,1.0,30.11,SSW,200,5.0,10.0,68,0.00,,,0.00,,2013-01-02 08:22:00,
2013-01-02 03:32:00,9.0,1.0,30.11,WSW,245,6.0,13.0,68,0.00,,,0.00,,2013-01-02 08:32:00,
2013-01-02 03:42:00,9.0,1.0,30.11,WSW,245,6.0,13.0,68,0.00,,,0.00,,2013-01-02 08:42:00,
2013-01-02 03:53:00,10.0,1.0,30.11,WSW,253,4.0,10.0,66,0.00,,,0.00,,2013-01-02 08:53:00,
2013-01-02 04:02:00,10.0,1.0,30.14,WSW,252,6.0,10.0,66,0.00,,,0.00,,2013-01-02 09:02:00,
2013-01-02 04:12:00,10.0,1.0,30.14,WSW,252,6.0,10.0,66,0.00,,,0.00,,2013-01-02 09:12:00,
2013-01-02 04:22:00,10.0,0.0,30.12,WSW,254,2.0,7.0,64,0.00,,,0.00,,2013-01-02 09:22:00,
2013-01-02 04:32:00,10.0,1.0,30.14,West,273,0.0,7.0,65,0.00,,,0.00,,2013-01-02 09:32:00,
2013-01-02 04:43:00,10.0,1.0,30.14,West,273,0.0,7.0,65,0.00,,,0.00,,2013-01-02 09:43:00,
2013-01-02 04:52:00,10.0,1.0,30.14,East,89,0.0,14.0,65,0.00,,,0.00,,2013-01-02 09:52:00,
2013-01-02 05:02:00,10.0,1.0,30.14,WNW,285,2.0,9.0,65,0.00,,,0.00,,2013-01-02 10:02:00,
2013-01-02 05:12:00,10.0,0.0,30.14,SW,227,2.0,10.0,64,0.00,,,0.00,,2013-01-02 10:12:00,
2013-01-02 05:22:00,10.0,0.0,30.14,SW,227,2.0,10.0,64,0.00,,,0.00,,2013-01-02 10:22:00,
2013-01-02 05:32:00,9.0,0.0,30.14,WNW,296,2.0,6.0,67,0.00,,,0.00,,2013-01-02 10:32:00,
2013-01-02 05:42:00,9.0,0.0,30.14,WNW,296,2.0,6.0,67,0.00,,,0.00,,2013-01-02 10:42:00,
2013-01-02 05:52:00,8.0,-1.0,30.14,WNW,296,0.0,0.0,66,0.00,,,0.00,,2013-01-02 10:52:00,
2013-01-02 06:02:00,9.0,0.0,30.13,South,185,0.0,3.0,67,0.00,,,0.00,,2013-01-02 11:02:00,
2013-01-02 06:12:00,9.0,0.0,30.13,South,185,0.0,3.0,67,0.00,,,0.00,,2013-01-02 11:12:00,
2013-01-02 06:22:00,9.0,1.0,30.13,South,184,1.0,9.0,68,0.00,,,0.00,,2013-01-02 11:22:00,
2013-01-02 06:32:00,9.0,0.0,30.13,WNW,294,0.0,0.0,67,0.00,,,0.00,,2013-01-02 11:32:00,
2013-01-02 06:42:00,9.0,0.0,30.13,WNW,294,0.0,0.0,67,0.00,,,0.00,,2013-01-02 11:42:00,
2013-01-02 06:53:00,6.0,-2.0,30.11,South,180,0.0,4.0,70,0.00,,,0.00,,2013-01-02 11:53:00,
2013-01-02 07:02:00,7.0,-1.0,30.14,South,182,2.0,5.0,70,0.00,,,0.00,,2013-01-02 12:02:00,
2013-01-02 07:12:00,7.0,-1.0,30.14,South,182,2.0,5.0,70,0.00,,,0.00,,2013-01-02 12:12:00,
2013-01-02 07:22:00,6.0,-2.0,30.13,SW,225,1.0,4.0,69,0.00,,,0.00,,2013-01-02 12:22:00,
2013-01-02 07:32:00,6.0,-1.0,30.13,SW,217,1.0,5.0,73,0.00,,,0.00,,2013-01-02 12:32:00,
2013-01-02 07:42:00,6.0,-1.0,30.13,SW,217,1.0,5.0,73,0.00,,,0.00,,2013-01-02 12:42:00,
2013-01-02 07:53:00,7.0,0.0,30.13,SSW,196,2.0,6.0,71,0.00,,,0.00,,2013-01-02 12:53:00,
2013-01-02 08:02:00,9.0,1.0,30.14,WSW,250,0.0,3.0,70,0.00,,,0.00,,2013-01-02 13:02:00,
2013-01-02 08:12:00,9.0,1.0,30.14,WSW,250,0.0,3.0,70,0.00,,,0.00,,2013-01-02 13:12:00,
2013-01-02 08:22:00,9.0,1.0,30.14,SW,232,1.0,4.0,69,0.00,,,0.00,,2013-01-02 13:22:00,
2013-01-02 08:32:00,9.0,1.0,30.13,SSW,206,1.0,5.0,69,0.00,,,0.00,,2013-01-02 13:32:00,
2013-01-02 08:42:00,9.0,1.0,30.13,SSW,206,1.0,5.0,69,0.00,,,0.00,,2013-01-02 13:42:00,
2013-01-02 08:52:00,10.0,2.0,30.14,SW,229,4.0,10.0,68,0.00,,,0.00,,2013-01-02 13:52:00,
2013-01-02 09:02:00,10.0,1.0,30.14,SW,219,4.0,12.0,67,0.00,,,0.00,,2013-01-02 14:02:00,
2013-01-02 09:12:00,10.0,1.0,30.14,SW,219,4.0,12.0,67,0.00,,,0.00,,2013-01-02 14:12:00,
2013-01-02 09:22:00,8.0,0.0,30.14,SW,227,7.0,11.0,68,0.00,,,0.00,,2013-01-02 14:22:00,
2013-01-02 09:33:00,9.0,0.0,30.14,SW,233,7.0,12.0,67,0.00,,,0.00,,2013-01-02 14:33:00,
2013-01-02 09:42:00,9.0,0.0,30.14,SW,233,7.0,12.0,67,0.00,,,0.00,,2013-01-02 14:42:00,
2013-01-02 09:53:00,8.0,-1.0,30.14,WSW,242,6.0,9.0,67,0.00,,,0.00,,2013-01-02 14:53:00,
2013-01-02 10:02:00,8.0,0.0,30.14,SSW,210,2.0,10.0,69,0.00,,,0.00,,2013-01-02 15:02:00,
2013-01-02 10:12:00,8.0,0.0,30.14,SSW,210,2.0,10.0,69,0.00,,,0.00,,2013-01-02 15:12:00,
2013-01-02 10:22:00,8.0,0.0,30.14,WSW,248,2.0,10.0,69,0.00,,,0.00,,2013-01-02 15:22:00,
2013-01-02 10:33:00,9.0,1.0,30.14,WSW,254,5.0,9.0,69,0.00,,,0.00,,2013-01-02 15:33:00,
2013-01-02 10:42:00,9.0,1.0,30.14,WSW,254,5.0,9.0,69,0.00,,,0.00,,2013-01-02 15:42:00,
2013-01-02 10:53:00,10.0,2.0,30.14,WSW,254,3.0,14.0,68,0.00,,,0.00,,2013-01-02 15:53:00,
2013-01-02 11:03:00,9.0,1.0,30.14,SW,226,5.0,10.0,68,0.00,,,0.00,,2013-01-02 16:03:00,
2013-01-02 11:12:00,9.0,1.0,30.14,SW,226,5.0,10.0,68,0.00,,,0.00,,2013-01-02 16:12:00,
2013-01-02 11:22:00,12.0,3.0,30.14,SW,229,0.0,10.0,67,0.00,,,0.00,,2013-01-02 16:22:00,
2013-01-02 11:33:00,15.0,4.0,30.15,South,175,0.0,1.0,61,0.00,,,0.00,,2013-01-02 16:33:00,
2013-01-02 11:42:00,15.0,4.0,30.15,South,175,0.0,1.0,61,0.00,,,0.00,,2013-01-02 16:42:00,
2013-01-02 11:53:00,15.0,4.0,30.14,SSE,167,0.0,1.0,60,0.00,,,0.00,,2013-01-02 16:53:00,
2013-01-02 12:03:00,16.0,4.0,30.15,SW,215,0.0,0.0,58,0.00,,,0.00,,2013-01-02 17:03:00,
2013-01-02 12:12:00,16.0,4.0,30.15,SW,215,0.0,0.0,58,0.00,,,0.00,,2013-01-02 17:12:00,
2013-01-02 12:23:00,17.0,4.0,30.14,WSW,239,0.0,2.0,56,0.00,,,0.00,,2013-01-02 17:23:00,
2013-01-02 12:33:00,18.0,4.0,30.15,West,260,0.0,1.0,53,0.00,,,0.00,,2013-01-02 17:33:00,
2013-01-02 12:43:00,18.0,4.0,30.15,West,260,0.0,1.0,53,0.00,,,0.00,,2013-01-02 17:43:00,
2013-01-02 12:53:00,19.0,4.0,30.15,WSW,252,3.0,6.0,51,0.00,,,0.00,,2013-01-02 17:53:00,
2013-01-02 13:02:00,19.0,3.0,30.15,NW,326,0.0,0.0,49,0.00,,,0.00,,2013-01-02 18:02:00,
2013-01-02 13:12:00,19.0,3.0,30.15,NW,326,0.0,0.0,49,0.00,,,0.00,,2013-01-02 18:12:00,
2013-01-02 13:22:00,19.0,3.0,30.15,WSW,240,0.0,2.0,50,0.00,,,0.00,,2013-01-02 18:22:00,
2013-01-02 13:33:00,18.0,3.0,30.14,SE,143,0.0,5.0,51,0.00,,,0.00,,2013-01-02 18:33:00,
2013-01-02 13:42:00,18.0,3.0,30.14,SE,143,0.0,5.0,51,0.00,,,0.00,,2013-01-02 18:42:00,
2013-01-02 13:53:00,19.0,3.0,30.14,ENE,76,1.0,4.0,50,0.00,,,0.00,,2013-01-02 18:53:00,
2013-01-02 14:03:00,17.0,4.0,30.14,NE,55,3.0,7.0,57,0.00,,,0.00,,2013-01-02 19:03:00,
2013-01-02 14:12:00,17.0,4.0,30.14,NE,55,3.0,7.0,57,0.00,,,0.00,,2013-01-02 19:12:00,
2013-01-02 14:22:00,18.0,5.0,30.14,ENE,72,1.0,4.0,55,0.00,,,0.00,,2013-01-02 19:22:00,
2013-01-02 14:32:00,18.0,3.0,30.14,NNW,336,1.0,6.0,50,0.00,,,0.00,,2013-01-02 19:32:00,
2013-01-02 14:43:00,18.0,3.0,30.14,NNW,336,1.0,6.0,50,0.00,,,0.00,,2013-01-02 19:43:00,
2013-01-02 14:52:00,18.0,1.0,30.13,NW,319,7.0,14.0,46,0.00,,,0.00,,2013-01-02 19:52:00,
2013-01-02 15:02:00,17.0,-1.0,30.12,WNW,292,5.0,12.0,45,0.00,,,0.00,,2013-01-02 20:02:00,
2013-01-02 15:12:00,17.0,-1.0,30.12,WNW,292,5.0,12.0,45,0.00,,,0.00,,2013-01-02 20:12:00,
2013-01-02 15:23:00,20.0,1.0,30.11,NW,318,6.0,13.0,43,0.00,,,0.00,,2013-01-02 20:23:00,
2013-01-02 15:33:00,20.0,0.0,30.10,NW,317,3.0,12.0,40,0.00,,,0.00,,2013-01-02 20:33:00,
2013-01-02 15:42:00,20.0,0.0,30.10,NW,317,3.0,12.0,40,0.00,,,0.00,,2013-01-02 20:42:00,
2013-01-02 15:53:00,20.0,0.0,30.10,NW,313,5.0,12.0,41,0.00,,,0.00,,2013-01-02 20:53:00,
2013-01-02 16:03:00,20.0,-1.0,30.11,WSW,246,5.0,17.0,39,0.00,,,0.00,,2013-01-02 21:03:00,
2013-01-02 16:12:00,20.0,-1.0,30.11,WSW,246,5.0,17.0,39,0.00,,,0.00,,2013-01-02 21:12:00,
2013-01-02 16:22:00,19.0,-1.0,30.10,WNW,289,0.0,11.0,41,0.00,,,0.00,,2013-01-02 21:22:00,
2013-01-02 16:32:00,18.0,-2.0,30.11,WNW,290,8.0,15.0,40,0.00,,,0.00,,2013-01-02 21:32:00,
2013-01-02 16:42:00,18.0,-2.0,30.11,WNW,290,8.0,15.0,40,0.00,,,0.00,,2013-01-02 21:42:00,
2013-01-02 16:53:00,19.0,0.0,30.11,West,277,3.0,12.0,43,0.00,,,0.00,,2013-01-02 21:53:00,
2013-01-02 17:02:00,18.0,-1.0,30.13,NNW,340,7.0,15.0,43,0.00,,,0.00,,2013-01-02 22:02:00,
2013-01-02 17:12:00,18.0,-1.0,30.13,NNW,340,7.0,15.0,43,0.00,,,0.00,,2013-01-02 22:12:00,
2013-01-02 17:22:00,18.0,-1.0,30.13,South,172,0.0,16.0,42,0.00,,,0.00,,2013-01-02 22:22:00,
2013-01-02 17:32:00,17.0,-2.0,30.15,South,185,2.0,9.0,43,0.00,,,0.00,,2013-01-02 22:32:00,
2013-01-02 17:42:00,17.0,-2.0,30.15,South,185,2.0,9.0,43,0.00,,,0.00,,2013-01-02 22:42:00,
2013-01-02 17:53:00,18.0,-1.0,30.15,SW,235,1.0,5.0,43,0.00,,,0.00,,2013-01-02 22:53:00,
2013-01-02 18:02:00,16.0,-2.0,30.16,SSW,202,3.0,16.0,45,0.00,,,0.00,,2013-01-02 23:02:00,
2013-01-02 18:12:00,15.0,-1.0,30.16,SSW,199,3.0,12.0,48,0.00,,,0.00,,2013-01-02 23:12:00,
2013-01-02 18:23:00,15.0,-1.0,30.16,SSW,199,3.0,12.0,48,0.00,,,0.00,,2013-01-02 23:23:00,
2013-01-02 18:33:00,14.0,-1.0,30.16,South,183,3.0,9.0,51,0.00,,,0.00,,2013-01-02 23:33:00,
2013-01-02 18:42:00,14.0,-1.0,30.16,South,183,3.0,9.0,51,0.00,,,0.00,,2013-01-02 23:42:00,
2013-01-02 18:53:00,14.0,0.0,30.16,SSE,167,0.0,6.0,52,0.00,,,0.00,,2013-01-02 23:53:00,
2013-01-02 19:02:00,14.0,0.0,30.17,WSW,247,5.0,10.0,52,0.00,,,0.00,,2013-01-03 00:02:00,
2013-01-02 19:12:00,14.0,0.0,30.17,WSW,247,5.0,10.0,52,0.00,,,0.00,,2013-01-03 00:12:00,
2013-01-02 19:22:00,13.0,-1.0,30.17,WNW,291,1.0,10.0,53,0.00,,,0.00,,2013-01-03 00:22:00,
2013-01-02 19:37:00,13.0,0.0,30.18,South,170,1.0,4.0,55,0.00,,,0.00,,2013-01-03 00:37:00,
2013-01-02 19:52:00,12.0,0.0,30.18,SW,214,0.0,3.0,57,0.00,,,0.00,,2013-01-03 00:52:00,
2013-01-02 20:02:00,9.0,-1.0,30.18,SW,227,1.0,5.0,62,0.00,,,0.00,,2013-01-03 01:02:00,
2013-01-02 20:12:00,9.0,-1.0,30.18,SW,227,1.0,5.0,62,0.00,,,0.00,,2013-01-03 01:12:00,
2013-01-02 20:22:00,10.0,0.0,30.18,SW,215,3.0,7.0,62,0.00,,,0.00,,2013-01-03 01:22:00,
2013-01-02 20:32:00,9.0,-1.0,30.18,SSW,207,2.0,11.0,63,0.00,,,0.00,,2013-01-03 01:32:00,
2013-01-02 20:42:00,9.0,-1.0,30.18,SSW,207,2.0,11.0,63,0.00,,,0.00,,2013-01-03 01:42:00,
2013-01-02 20:52:00,9.0,-1.0,30.18,SW,234,4.0,10.0,63,0.00,,,0.00,,2013-01-03 01:52:00,
2013-01-02 21:02:00,8.0,-2.0,30.19,SW,219,2.0,7.0,64,0.00,,,0.00,,2013-01-03 02:02:00,
2013-01-02 21:12:00,8.0,-2.0,30.19,SW,219,2.0,7.0,64,0.00,,,0.00,,2013-01-03 02:12:00,
2013-01-02 21:22:00,8.0,-2.0,30.19,SW,215,3.0,7.0,63,0.00,,,0.00,,2013-01-03 02:22:00,
2013-01-02 21:33:00,8.0,-2.0,30.19,WSW,248,5.0,7.0,63,0.00,,,0.00,,2013-01-03 02:33:00,
2013-01-02 21:42:00,8.0,-2.0,30.19,WSW,248,5.0,7.0,63,0.00,,,0.00,,2013-01-03 02:42:00,
2013-01-02 21:52:00,8.0,-2.0,30.19,WSW,248,5.0,7.0,63,0.00,,,0.00,,2013-01-03 02:52:00,
2013-01-02 22:02:00,7.0,-3.0,30.20,SW,229,9.0,12.0,64,0.00,,,0.00,,2013-01-03 03:02:00,
2013-01-02 22:12:00,7.0,-3.0,30.20,SSW,210,7.0,13.0,63,0.00,,,0.00,,2013-01-03 03:12:00,
2013-01-02 22:22:00,7.0,-3.0,30.20,SSW,210,7.0,13.0,63,0.00,,,0.00,,2013-01-03 03:22:00,
2013-01-02 22:46:00,8.0,-2.0,30.19,SW,225,8.0,16.0,62,0.00,,,0.00,,2013-01-03 03:46:00,
2013-01-02 22:53:00,8.0,-3.0,30.19,WSW,246,8.0,14.0,60,0.00,,,0.00,,2013-01-03 03:53:00,
2013-01-02 23:02:00,8.0,-3.0,30.19,SW,219,7.0,14.0,60,0.00,,,0.00,,2013-01-03 04:02:00,
2013-01-02 23:12:00,8.0,-3.0,30.19,SW,219,7.0,14.0,60,0.00,,,0.00,,2013-01-03 04:12:00,
2013-01-02 23:22:00,8.0,-3.0,30.19,West,265,11.0,17.0,61,0.00,,,0.00,,2013-01-03 04:22:00,
2013-01-02 23:32:00,8.0,-3.0,30.21,West,276,10.0,16.0,61,0.00,,,0.00,,2013-01-03 04:32:00,
2013-01-02 23:42:00,8.0,-3.0,30.21,West,276,10.0,16.0,61,0.00,,,0.00,,2013-01-03 04:42:00,
2013-01-02 23:52:00,8.0,-3.0,30.21,WSW,256,5.0,18.0,61,0.00,,,0.00,,2013-01-03 04:52:00,